Hansa Limburg — A8IH6 — position and weather

sailwx.info

Track history (hours):
 
Tides and Currents Weather Stations Pressure Air Temp Water Temp Dewpoint Dewpoint Depression Visibility Wind Speed Wind Dir Waves Ship Positions

Hansa Limburg

Last reported at 2014-Sep-14 22:05 UTC. Time now 2014-Sep-16 19:25 UTC.
Position N 40°03' W 029°31'.

Length 175.5 m; beam 27.4 m; draft 10.9 m.

Type: Ship (hazmat cat B). MMSI: 636090980.

Date/timePositionNaut miles runAvg speedWind from/ knotsBaromVisibWave heightAir tempDewpointWater temp
2014-Sep-14 22:05N 40°03' W 029°31'2113.9
2014-Sep-14 20:33N 40°01' W 029°04'1414.2
2014-Sep-14 19:33N 40°00' W 028°45'1713.0
2014-Sep-14 18:15N 39°58' W 028°23'913.6
2014-Sep-14 17:33N 39°57' W 028°11'1413.6
2014-Sep-14 16:33N 39°56' W 027°54'2013.6
2014-Sep-14 15:05N 39°54' W 027°28'914.1
2014-Sep-14 14:27N 39°52' W 027°16'1513.9
2014-Sep-14 13:24N 39°51' W 026°57'  
2014-Sep-11 23:33N 38°35' W 009°33'1212.0
2014-Sep-11 22:33N 38°40' W 009°19'8 7.9
2014-Sep-11 21:33N 38°42' W 009°10'0 0.1
2014-Sep-11 20:33N 38°42' W 009°10'0 0.0
2014-Sep-11 19:33N 38°42' W 009°10'0 0.0
2014-Sep-11 18:33N 38°42' W 009°10'0 0.0
2014-Sep-11 17:33N 38°42' W 009°10'0 0.0
2014-Sep-11 16:33N 38°42' W 009°10'0 0.0
2014-Sep-11 15:33N 38°42' W 009°10'0 0.0
2014-Sep-11 14:33N 38°42' W 009°10'0 0.0
2014-Sep-11 13:33N 38°42' W 009°10'0 0.0
2014-Sep-11 12:33N 38°42' W 009°10'0 0.0
2014-Sep-11 11:33N 38°42' W 009°10'0 0.0
2014-Sep-11 10:33N 38°42' W 009°10'0 0.0
2014-Sep-11 09:33N 38°42' W 009°10'0 0.0
2014-Sep-11 08:33N 38°42' W 009°10'0 0.0
2014-Sep-11 07:33N 38°42' W 009°10'0 0.0
2014-Sep-11 06:33N 38°42' W 009°10'0 0.0
2014-Sep-11 05:32N 38°42' W 009°10'0 0.0
2014-Sep-11 04:32N 38°42' W 009°10'0 0.0
2014-Sep-11 03:32N 38°42' W 009°10'0 0.0
2014-Sep-11 02:32N 38°42' W 009°10'0 0.0
2014-Sep-11 01:32N 38°42' W 009°10'0 0.0
2014-Sep-11 00:33N 38°42' W 009°10'2 2.1
2014-Sep-10 23:33N 38°41' W 009°12'9 9.1
2014-Sep-10 22:34N 38°41' W 009°24'9 9.0
2014-Sep-10 21:33N 38°32' W 009°24'24411.0
2014-Sep-09 23:26N 36°00' W 005°23'22613.3
2014-Sep-09 06:22N 37°18' W 000°58'1315.5
2014-Sep-09 05:31N 37°26' W 000°46'1515.1
2014-Sep-09 04:32N 37°36' W 000°32'1515.0
2014-Sep-09 03:33N 37°49' W 000°22'1614.9
2014-Sep-09 02:29N 38°02' W 000°11'8412.1
2014-Sep-08 19:33N 39°25' W 000°18'2 1.8
2014-Sep-08 18:33N 39°27' W 000°19'0 0.0
2014-Sep-08 17:33N 39°27' W 000°19'0 0.0
2014-Sep-08 16:33N 39°27' W 000°19'0 0.0
2014-Sep-08 15:33N 39°27' W 000°19'0 0.0
2014-Sep-08 14:33N 39°27' W 000°19'0 0.0
2014-Sep-08 13:33N 39°27' W 000°19'0 0.0
2014-Sep-08 12:33N 39°27' W 000°19'0 0.0
2014-Sep-08 11:33N 39°27' W 000°19'0 0.0
2014-Sep-08 10:33N 39°27' W 000°19'0 0.0
2014-Sep-08 09:33N 39°27' W 000°19'0 0.0
2014-Sep-08 08:33N 39°27' W 000°19'0 0.0
2014-Sep-08 07:33N 39°27' W 000°19'0 0.0
2014-Sep-08 06:33N 39°27' W 000°19'0 0.0
2014-Sep-08 05:34N 39°27' W 000°19'0 0.0
2014-Sep-08 04:33N 39°27' W 000°19'0 0.0
2014-Sep-08 03:34N 39°27' W 000°19'0 0.0
2014-Sep-08 02:33N 39°27' W 000°19'0 0.0
2014-Sep-08 01:34N 39°27' W 000°19'0 0.0
2014-Sep-08 00:33N 39°27' W 000°19'0 0.0
2014-Sep-07 23:33N 39°27' W 000°19'0 0.0
2014-Sep-07 22:34N 39°27' W 000°19'0 0.0
2014-Sep-07 21:33N 39°27' W 000°19'0 0.0
2014-Sep-07 20:34N 39°27' W 000°19'0 0.0
2014-Sep-07 19:33N 39°27' W 000°19'0 0.0
2014-Sep-07 18:33N 39°27' W 000°19'0 0.0
2014-Sep-07 17:33N 39°27' W 000°19'0 0.0
2014-Sep-07 16:33N 39°27' W 000°19'0 0.3
2014-Sep-07 15:33N 39°27' W 000°19'4 0.8
2014-Sep-07 10:33N 39°24' W 000°16'0 0.0
2014-Sep-07 09:33N 39°24' W 000°16'0 0.0
2014-Sep-07 06:26N 39°24' W 000°16'4 4.9
2014-Sep-07 05:34N 39°27' W 000°12'9 9.3
2014-Sep-07 04:33N 39°34' W 000°04'37 9.3
2014-Sep-07 00:33N 39°60' E 000°32'23 9.3
2014-Sep-06 22:03N 40°15' E 000°54'14 9.0
2014-Sep-06 20:33N 40°24' E 001°07'9 8.9
2014-Sep-06 19:33N 40°30' E 001°16'9 9.0
2014-Sep-06 18:33N 40°36' E 001°24'9 9.0
2014-Sep-06 17:33N 40°43' E 001°33'10 9.4
2014-Sep-06 16:32N 40°50' E 001°41'9 9.3
2014-Sep-06 15:33N 40°57' E 001°49'9 9.3
2014-Sep-06 14:33N 41°04' E 001°57'9 8.8
2014-Sep-06 13:33N 41°11' E 002°04'8 8.1
2014-Sep-06 12:33N 41°17' E 002°11'4 3.7
2014-Sep-06 11:30N 41°21' E 002°10'0 0.0
2014-Sep-06 10:33N 41°21' E 002°10'0 0.0
2014-Sep-06 09:30N 41°21' E 002°10'0 0.0
2014-Sep-06 07:24N 41°21' E 002°10'3 0.3
2014-Sep-05 20:26N 41°18' E 002°11'1713.1
2014-Sep-05 19:07N 41°23' E 002°33'814.5
2014-Sep-05 18:33N 41°26' E 002°43'1514.5
2014-Sep-05 17:32N 41°33' E 003°01'1515.2
2014-Sep-05 16:33N 41°39' E 003°18'1715.8
2014-Sep-05 15:27N 41°46' E 003°40'1415.5
2014-Sep-05 14:33N 41°52' E 003°57'1615.2
2014-Sep-05 13:32N 41°58' E 004°16'1514.9
2014-Sep-05 12:33N 42°04' E 004°33'1514.8
2014-Sep-05 11:31N 42°11' E 004°52'1515.2
2014-Sep-05 10:33N 42°17' E 005°10'1614.9
2014-Sep-05 09:30N 42°23' E 005°30'1514.6
2014-Sep-05 08:30N 42°29' E 005°48'1313.9
2014-Sep-05 07:33N 42°35' E 006°04'1514.8
2014-Sep-05 06:33N 42°41' E 006°22'1515.2
2014-Sep-05 05:33N 42°50' E 006°39'1616.0
2014-Sep-05 04:33N 42°60' E 006°56'1815.8
2014-Sep-05 03:26N 43°12' E 007°14'1415.5
2014-Sep-05 02:32N 43°21' E 007°28'1515.4
2014-Sep-05 01:33N 43°31' E 007°44'1615.7
2014-Sep-05 00:33N 43°41' E 008°00'1615.7
2014-Sep-04 23:30N 43°52' E 008°18'1515.4
2014-Sep-04 22:33N 44°02' E 008°32'  
Track history (hours):
 
Tides and Currents Weather Stations Pressure Air Temp Water Temp Dewpoint Dewpoint Depression Visibility Wind Speed Wind Dir Waves Ship Positions

Hansa Limburg

Last reported at 2014-Sep-14 22:05 UTC. Time now 2014-Sep-16 19:25 UTC.
Position N 40°03' W 029°31'.

Length 175.5 m; beam 27.4 m; draft 10.9 m.

Type: Ship (hazmat cat B). MMSI: 636090980.

Date/timePositionNaut miles runAvg speedWind from/ knotsBaromVisibWave heightAir tempDewpointWater temp
2014-Sep-14 22:05N 40°03' W 029°31'2113.9
2014-Sep-14 20:33N 40°01' W 029°04'1414.2
2014-Sep-14 19:33N 40°00' W 028°45'1713.0
2014-Sep-14 18:15N 39°58' W 028°23'913.6
2014-Sep-14 17:33N 39°57' W 028°11'1413.6
2014-Sep-14 16:33N 39°56' W 027°54'2013.6
2014-Sep-14 15:05N 39°54' W 027°28'914.1
2014-Sep-14 14:27N 39°52' W 027°16'1513.9
2014-Sep-14 13:24N 39°51' W 026°57'  
2014-Sep-11 23:33N 38°35' W 009°33'1212.0
2014-Sep-11 22:33N 38°40' W 009°19'8 7.9
2014-Sep-11 21:33N 38°42' W 009°10'0 0.1
2014-Sep-11 20:33N 38°42' W 009°10'0 0.0
2014-Sep-11 19:33N 38°42' W 009°10'0 0.0
2014-Sep-11 18:33N 38°42' W 009°10'0 0.0
2014-Sep-11 17:33N 38°42' W 009°10'0 0.0
2014-Sep-11 16:33N 38°42' W 009°10'0 0.0
2014-Sep-11 15:33N 38°42' W 009°10'0 0.0
2014-Sep-11 14:33N 38°42' W 009°10'0 0.0
2014-Sep-11 13:33N 38°42' W 009°10'0 0.0
2014-Sep-11 12:33N 38°42' W 009°10'0 0.0
2014-Sep-11 11:33N 38°42' W 009°10'0 0.0
2014-Sep-11 10:33N 38°42' W 009°10'0 0.0
2014-Sep-11 09:33N 38°42' W 009°10'0 0.0
2014-Sep-11 08:33N 38°42' W 009°10'0 0.0
2014-Sep-11 07:33N 38°42' W 009°10'0 0.0
2014-Sep-11 06:33N 38°42' W 009°10'0 0.0
2014-Sep-11 05:32N 38°42' W 009°10'0 0.0
2014-Sep-11 04:32N 38°42' W 009°10'0 0.0
2014-Sep-11 03:32N 38°42' W 009°10'0 0.0
2014-Sep-11 02:32N 38°42' W 009°10'0 0.0
2014-Sep-11 01:32N 38°42' W 009°10'0 0.0
2014-Sep-11 00:33N 38°42' W 009°10'2 2.1
2014-Sep-10 23:33N 38°41' W 009°12'9 9.1
2014-Sep-10 22:34N 38°41' W 009°24'9 9.0
2014-Sep-10 21:33N 38°32' W 009°24'24411.0
2014-Sep-09 23:26N 36°00' W 005°23'22613.3
2014-Sep-09 06:22N 37°18' W 000°58'1315.5
2014-Sep-09 05:31N 37°26' W 000°46'1515.1
2014-Sep-09 04:32N 37°36' W 000°32'1515.0
2014-Sep-09 03:33N 37°49' W 000°22'1614.9
2014-Sep-09 02:29N 38°02' W 000°11'8412.1
2014-Sep-08 19:33N 39°25' W 000°18'2 1.8
2014-Sep-08 18:33N 39°27' W 000°19'0 0.0
2014-Sep-08 17:33N 39°27' W 000°19'0 0.0
2014-Sep-08 16:33N 39°27' W 000°19'0 0.0
2014-Sep-08 15:33N 39°27' W 000°19'0 0.0
2014-Sep-08 14:33N 39°27' W 000°19'0 0.0
2014-Sep-08 13:33N 39°27' W 000°19'0 0.0
2014-Sep-08 12:33N 39°27' W 000°19'0 0.0
2014-Sep-08 11:33N 39°27' W 000°19'0 0.0
2014-Sep-08 10:33N 39°27' W 000°19'0 0.0
2014-Sep-08 09:33N 39°27' W 000°19'0 0.0
2014-Sep-08 08:33N 39°27' W 000°19'0 0.0
2014-Sep-08 07:33N 39°27' W 000°19'0 0.0
2014-Sep-08 06:33N 39°27' W 000°19'0 0.0
2014-Sep-08 05:34N 39°27' W 000°19'0 0.0
2014-Sep-08 04:33N 39°27' W 000°19'0 0.0
2014-Sep-08 03:34N 39°27' W 000°19'0 0.0
2014-Sep-08 02:33N 39°27' W 000°19'0 0.0
2014-Sep-08 01:34N 39°27' W 000°19'0 0.0
2014-Sep-08 00:33N 39°27' W 000°19'0 0.0
2014-Sep-07 23:33N 39°27' W 000°19'0 0.0
2014-Sep-07 22:34N 39°27' W 000°19'0 0.0
2014-Sep-07 21:33N 39°27' W 000°19'0 0.0
2014-Sep-07 20:34N 39°27' W 000°19'0 0.0
2014-Sep-07 19:33N 39°27' W 000°19'0 0.0
2014-Sep-07 18:33N 39°27' W 000°19'0 0.0
2014-Sep-07 17:33N 39°27' W 000°19'0 0.0
2014-Sep-07 16:33N 39°27' W 000°19'0 0.3
2014-Sep-07 15:33N 39°27' W 000°19'4 0.8
2014-Sep-07 10:33N 39°24' W 000°16'0 0.0
2014-Sep-07 09:33N 39°24' W 000°16'0 0.0
2014-Sep-07 06:26N 39°24' W 000°16'4 4.9
2014-Sep-07 05:34N 39°27' W 000°12'9 9.3
2014-Sep-07 04:33N 39°34' W 000°04'37 9.3
2014-Sep-07 00:33N 39°60' E 000°32'23 9.3
2014-Sep-06 22:03N 40°15' E 000°54'14 9.0
2014-Sep-06 20:33N 40°24' E 001°07'9 8.9
2014-Sep-06 19:33N 40°30' E 001°16'9 9.0
2014-Sep-06 18:33N 40°36' E 001°24'9 9.0
2014-Sep-06 17:33N 40°43' E 001°33'10 9.4
2014-Sep-06 16:32N 40°50' E 001°41'9 9.3
2014-Sep-06 15:33N 40°57' E 001°49'9 9.3
2014-Sep-06 14:33N 41°04' E 001°57'9 8.8
2014-Sep-06 13:33N 41°11' E 002°04'8 8.1
2014-Sep-06 12:33N 41°17' E 002°11'4 3.7
2014-Sep-06 11:30N 41°21' E 002°10'0 0.0
2014-Sep-06 10:33N 41°21' E 002°10'0 0.0
2014-Sep-06 09:30N 41°21' E 002°10'0 0.0
2014-Sep-06 07:24N 41°21' E 002°10'3 0.3
2014-Sep-05 20:26N 41°18' E 002°11'1713.1
2014-Sep-05 19:07N 41°23' E 002°33'814.5
2014-Sep-05 18:33N 41°26' E 002°43'1514.5
2014-Sep-05 17:32N 41°33' E 003°01'1515.2
2014-Sep-05 16:33N 41°39' E 003°18'1715.8
2014-Sep-05 15:27N 41°46' E 003°40'1415.5
2014-Sep-05 14:33N 41°52' E 003°57'1615.2
2014-Sep-05 13:32N 41°58' E 004°16'1514.9
2014-Sep-05 12:33N 42°04' E 004°33'1514.8
2014-Sep-05 11:31N 42°11' E 004°52'1515.2
2014-Sep-05 10:33N 42°17' E 005°10'1614.9
2014-Sep-05 09:30N 42°23' E 005°30'1514.6
2014-Sep-05 08:30N 42°29' E 005°48'1313.9
2014-Sep-05 07:33N 42°35' E 006°04'1514.8
2014-Sep-05 06:33N 42°41' E 006°22'1515.2
2014-Sep-05 05:33N 42°50' E 006°39'1616.0
2014-Sep-05 04:33N 42°60' E 006°56'1815.8
2014-Sep-05 03:26N 43°12' E 007°14'1415.5
2014-Sep-05 02:32N 43°21' E 007°28'1515.4
2014-Sep-05 01:33N 43°31' E 007°44'1615.7
2014-Sep-05 00:33N 43°41' E 008°00'1615.7
2014-Sep-04 23:30N 43°52' E 008°18'1515.4
2014-Sep-04 22:33N 44°02' E 008°32'  

Dump ship's entire track history